createdAt,value
2023-03-26T00:01:51.760Z,95.30
2023-03-26T00:04:19.947Z,95.46
2023-03-26T00:06:48.874Z,96.42
2023-03-26T00:09:16.689Z,94.83
2023-03-26T00:11:44.302Z,94.75
2023-03-26T00:14:13.991Z,94.94
2023-03-26T00:16:44.102Z,94.08
2023-03-26T00:19:11.727Z,94.00
2023-03-26T00:21:38.451Z,94.77
2023-03-26T00:24:06.252Z,94.52
2023-03-26T00:26:34.097Z,94.71
2023-03-26T00:29:03.464Z,95.18
2023-03-26T00:31:30.582Z,94.93
2023-03-26T00:33:57.756Z,94.26
2023-03-26T00:36:29.900Z,93.42
2023-03-26T00:39:06.647Z,92.06
2023-03-26T00:41:43.071Z,93.56
2023-03-26T00:44:10.532Z,94.44
2023-03-26T00:46:37.176Z,93.65
2023-03-26T00:49:04.223Z,93.63
2023-03-26T00:51:31.831Z,93.52
2023-03-26T00:54:04.866Z,93.10
2023-03-26T00:56:47.436Z,92.73
2023-03-26T00:59:14.257Z,93.52
2023-03-26T01:01:40.868Z,92.88
2023-03-26T01:04:30.610Z,93.64
2023-03-26T01:07:01.911Z,93.36
2023-03-26T01:09:35.751Z,91.88
2023-03-26T01:12:05.917Z,92.46
2023-03-26T01:14:32.563Z,92.75
2023-03-26T01:17:02.413Z,92.79
2023-03-26T01:19:39.581Z,92.66
2023-03-26T01:22:11.269Z,93.66
2023-03-26T01:24:48.820Z,94.59
2023-03-26T01:27:34.447Z,93.72
2023-03-26T01:30:42.404Z,94.29
2023-03-26T01:33:30.527Z,94.47
2023-03-26T01:36:16.737Z,95.88
2023-03-26T01:39:00.491Z,95.83
2023-03-26T01:41:39.029Z,95.71
2023-03-26T01:44:23.460Z,95.91
2023-03-26T01:46:51.093Z,95.33
2023-03-26T01:49:18.590Z,94.67
2023-03-26T01:51:45.098Z,95.74
2023-03-26T01:54:19.039Z,96.03
2023-03-26T01:57:12.481Z,95.81
2023-03-26T02:00:16.408Z,96.01
2023-03-26T02:03:18.129Z,96.87
2023-03-26T02:05:52.673Z,97.20
2023-03-26T02:08:35.874Z,97.10
2023-03-26T02:11:11.453Z,96.99
2023-03-26T02:13:43.422Z,95.42
2023-03-26T02:16:14.501Z,95.99
2023-03-26T02:18:41.305Z,95.17
2023-03-26T02:21:12.516Z,95.04
2023-03-26T02:23:40.896Z,96.01
2023-03-26T02:26:11.223Z,95.92
2023-03-26T02:28:38.312Z,96.41
2023-03-26T02:31:06.223Z,95.44
2023-03-26T02:33:33.034Z,95.63
2023-03-26T02:36:03.983Z,94.08
2023-03-26T02:38:35.325Z,94.42
2023-03-26T02:41:02.752Z,95.07
2023-03-26T02:43:29.409Z,97.52
2023-03-26T02:45:58.828Z,96.79
2023-03-26T02:48:25.517Z,96.67
2023-03-26T02:50:54.436Z,96.63
2023-03-26T02:53:21.997Z,97.24
2023-03-26T02:55:57.090Z,98.47
2023-03-26T02:58:25.423Z,98.50
2023-03-26T03:00:55.094Z,97.63
2023-03-26T03:03:26.431Z,98.39
2023-03-26T03:05:57.497Z,97.64
2023-03-26T03:08:28.201Z,97.82
2023-03-26T03:11:00.109Z,98.24
2023-03-26T03:13:27.580Z,97.70
2023-03-26T03:15:56.783Z,96.25
2023-03-26T03:18:23.548Z,97.11
2023-03-26T03:20:50.246Z,96.84
2023-03-26T03:23:16.786Z,96.87
2023-03-26T03:25:43.426Z,97.43
2023-03-26T03:28:09.948Z,97.81
2023-03-26T03:30:36.502Z,97.30
2023-03-26T03:33:03.278Z,97.00
2023-03-26T03:35:30.030Z,95.21
2023-03-26T03:37:57.753Z,98.13
2023-03-26T03:40:24.974Z,96.34
2023-03-26T03:42:51.675Z,96.36
2023-03-26T03:45:18.164Z,96.54
2023-03-26T03:47:44.697Z,95.77
2023-03-26T03:50:11.815Z,95.97
2023-03-26T03:52:38.335Z,97.47
2023-03-26T03:55:05.273Z,96.59
2023-03-26T03:57:33.517Z,96.86
2023-03-26T04:00:00.188Z,95.44
2023-03-26T04:02:30.485Z,95.28
2023-03-26T04:04:59.913Z,96.06
2023-03-26T04:07:27.474Z,96.14
2023-03-26T04:09:53.958Z,96.51
2023-03-26T04:12:35.765Z,98.03
2023-03-26T04:15:02.317Z,98.11
2023-03-26T04:17:30.726Z,98.29
2023-03-26T04:19:57.411Z,98.36
2023-03-26T04:22:24.429Z,98.33
2023-03-26T04:24:54.394Z,98.04
2023-03-26T04:27:27.880Z,97.30
2023-03-26T04:29:57.934Z,99.02
2023-03-26T04:32:30.012Z,97.78
2023-03-26T04:35:00.611Z,97.74
2023-03-26T04:37:39.556Z,97.98
2023-03-26T04:40:12.042Z,96.87
2023-03-26T04:42:45.966Z,98.42
2023-03-26T04:45:15.128Z,97.54
2023-03-26T04:47:41.897Z,96.80
2023-03-26T04:50:09.267Z,97.07
2023-03-26T04:52:36.681Z,96.93
2023-03-26T04:55:04.334Z,99.74
2023-03-26T04:57:37.342Z,98.84
2023-03-26T05:00:14.807Z,98.19
2023-03-26T05:02:42.893Z,97.94
2023-03-26T05:05:10.269Z,96.84
2023-03-26T05:07:36.882Z,96.34
2023-03-26T05:10:04.783Z,96.45
2023-03-26T05:12:31.274Z,95.75
2023-03-26T05:14:57.810Z,94.83
2023-03-26T05:17:24.849Z,95.19
2023-03-26T05:19:52.061Z,95.87
2023-03-26T05:22:19.314Z,95.04
2023-03-26T05:24:46.206Z,94.82
2023-03-26T05:27:25.192Z,95.01
2023-03-26T05:30:02.464Z,94.31
2023-03-26T05:32:31.004Z,95.58
2023-03-26T05:34:57.727Z,94.96
2023-03-26T05:37:27.043Z,96.28
2023-03-26T05:39:54.943Z,95.71
2023-03-26T05:42:21.742Z,94.92
2023-03-26T05:44:48.094Z,96.57
2023-03-26T05:47:14.537Z,97.87
2023-03-26T05:49:41.093Z,97.68
2023-03-26T05:52:07.668Z,98.20
2023-03-26T05:54:34.193Z,96.97
2023-03-26T05:57:00.953Z,95.94
2023-03-26T05:59:27.505Z,95.27
2023-03-26T06:01:54.874Z,93.36
2023-03-26T06:04:33.879Z,92.38
2023-03-26T06:07:36.623Z,95.10
2023-03-26T06:10:18.423Z,95.10
2023-03-26T06:12:53.679Z,95.37
2023-03-26T06:15:20.471Z,94.16
2023-03-26T06:17:46.994Z,94.13
2023-03-26T06:20:13.676Z,94.21
2023-03-26T06:22:40.275Z,95.87
2023-03-26T06:25:07.365Z,94.71
2023-03-26T06:27:33.937Z,94.01
2023-03-26T06:30:00.578Z,94.00
2023-03-26T06:32:27.148Z,93.76
2023-03-26T06:34:53.597Z,94.32
2023-03-26T06:37:20.223Z,93.45
2023-03-26T06:40:19.204Z,92.52
2023-03-26T06:43:07.834Z,92.74
2023-03-26T06:45:33.100Z,91.49
2023-03-26T06:48:00.166Z,91.39
2023-03-26T06:50:27.408Z,91.68
2023-03-26T06:52:56.940Z,90.21
2023-03-26T06:55:24.306Z,90.75
2023-03-26T06:57:51.794Z,87.60
2023-03-26T07:00:19.287Z,87.37
2023-03-26T07:02:46.139Z,85.89
2023-03-26T07:05:13.995Z,87.00
2023-03-26T07:07:45.998Z,86.82
2023-03-26T07:10:13.636Z,90.08
2023-03-26T07:12:41.601Z,87.80
2023-03-26T07:15:08.431Z,86.17
2023-03-26T07:17:34.824Z,86.66
2023-03-26T07:20:01.490Z,83.40
2023-03-26T07:22:28.224Z,83.81
2023-03-26T07:24:54.884Z,83.58
2023-03-26T07:27:42.905Z,81.99
2023-03-26T07:30:15.031Z,85.22
2023-03-26T07:32:52.979Z,84.16
2023-03-26T07:35:42.155Z,83.80
2023-03-26T07:38:41.125Z,81.36
2023-03-26T07:41:27.696Z,78.97
2023-03-26T07:44:22.091Z,80.36
2023-03-26T07:46:49.317Z,80.03
2023-03-26T07:49:17.902Z,79.43
2023-03-26T07:51:44.510Z,79.95
2023-03-26T07:54:11.475Z,78.63
2023-03-26T07:57:05.098Z,77.80
2023-03-26T07:59:40.167Z,78.42
2023-03-26T08:03:11.176Z,78.67
2023-03-26T08:05:48.161Z,78.26
2023-03-26T08:09:05.886Z,77.73
2023-03-26T08:12:07.964Z,79.96
2023-03-26T08:14:53.089Z,81.21
2023-03-26T08:17:56.798Z,83.89
2023-03-26T08:24:03.665Z,84.13
2023-03-26T08:27:05.359Z,83.13
2023-03-26T08:30:06.131Z,83.02
2023-03-26T08:32:33.060Z,81.91
2023-03-26T08:35:01.261Z,81.39
2023-03-26T08:37:29.307Z,81.26
2023-03-26T08:39:55.895Z,80.38
2023-03-26T08:43:00.441Z,80.54
2023-03-26T08:45:57.754Z,81.81
2023-03-26T08:48:45.519Z,81.49
2023-03-26T08:51:36.187Z,82.07
2023-03-26T08:54:25.981Z,82.71
2023-03-26T08:57:03.195Z,83.44
2023-03-26T08:59:57.953Z,82.62
2023-03-26T09:02:53.825Z,82.22
2023-03-26T09:05:58.613Z,83.22
2023-03-26T09:08:54.159Z,84.00
2023-03-26T09:11:44.881Z,85.43
2023-03-26T09:14:49.106Z,86.59
2023-03-26T09:18:17.363Z,87.05
2023-03-26T09:21:22.606Z,89.07
2023-03-26T09:24:11.074Z,89.54
2023-03-26T09:27:20.404Z,90.26
2023-03-26T09:30:01.756Z,90.53
2023-03-26T09:32:57.589Z,93.70
2023-03-26T09:35:30.080Z,93.03
2023-03-26T09:38:30.974Z,92.05
2023-03-26T09:41:17.432Z,91.74
2023-03-26T09:44:11.370Z,91.31
2023-03-26T09:49:58.760Z,92.91
2023-03-26T09:52:57.651Z,93.97
2023-03-26T09:55:31.375Z,92.35
2023-03-26T09:58:26.424Z,90.97
2023-03-26T10:01:20.477Z,90.89
2023-03-26T10:04:01.087Z,91.28
2023-03-26T10:06:41.805Z,89.61
2023-03-26T10:09:34.395Z,90.76
2023-03-26T10:12:11.103Z,90.37
2023-03-26T10:14:52.899Z,89.38
2023-03-26T10:17:39.820Z,90.06
2023-03-26T10:20:17.870Z,89.06
2023-03-26T10:23:02.684Z,90.50
2023-03-26T10:25:44.641Z,89.36
2023-03-26T10:28:36.376Z,88.17
2023-03-26T10:31:44.879Z,86.84
2023-03-26T10:34:28.038Z,86.13
2023-03-26T10:37:52.556Z,84.99
2023-03-26T10:40:22.567Z,83.25
2023-03-26T10:43:26.365Z,84.21
2023-03-26T10:46:04.584Z,83.39
2023-03-26T10:48:49.811Z,84.52
2023-03-26T10:51:30.577Z,83.91
2023-03-26T10:54:30.640Z,81.98
2023-03-26T10:57:00.975Z,80.67
2023-03-26T10:59:39.578Z,80.17
2023-03-26T11:02:30.275Z,80.46
2023-03-26T11:05:35.679Z,78.20
2023-03-26T11:08:31.024Z,80.32
2023-03-26T11:18:59.472Z,79.61
2023-03-26T11:22:00.207Z,77.54
2023-03-26T11:24:45.365Z,75.35
2023-03-26T11:27:36.910Z,75.31
2023-03-26T11:30:20.747Z,70.80
2023-03-26T11:32:57.175Z,71.90
2023-03-26T11:35:40.731Z,73.19
2023-03-26T11:38:39.033Z,71.84
2023-03-26T11:41:15.098Z,70.75
2023-03-26T11:43:41.778Z,71.70
2023-03-26T11:46:24.702Z,70.48
2023-03-26T11:52:20.665Z,73.25
2023-03-26T11:58:31.078Z,72.61
2023-03-26T12:00:57.952Z,72.96
2023-03-26T12:03:24.770Z,70.58
2023-03-26T12:13:21.754Z,71.59
2023-03-26T12:15:49.788Z,70.93
2023-03-26T12:18:32.250Z,71.21
2023-03-26T12:21:11.362Z,67.61
2023-03-26T12:23:43.987Z,64.67
2023-03-26T12:26:30.767Z,68.29
2023-03-26T12:28:57.296Z,67.00
2023-03-26T12:31:26.555Z,65.77
2023-03-26T12:34:22.626Z,67.64
2023-03-26T12:37:02.570Z,66.80
2023-03-26T12:40:08.704Z,67.58
2023-03-26T12:44:47.787Z,68.69
2023-03-26T12:45:32.282Z,67.18
2023-03-26T12:48:29.444Z,66.41
2023-03-26T12:51:41.893Z,67.38
2023-03-26T12:54:23.919Z,66.04
2023-03-26T13:00:17.800Z,65.36
2023-03-26T13:02:24.046Z,68.00
2023-03-26T13:03:28.062Z,65.45
2023-03-26T13:06:09.336Z,64.84
2023-03-26T13:12:27.095Z,65.66
2023-03-26T13:15:22.652Z,64.07
2023-03-26T13:18:16.746Z,63.66
2023-03-26T13:21:14.212Z,64.62
2023-03-26T13:23:50.364Z,64.10
2023-03-26T13:26:49.568Z,64.85
2023-03-26T13:33:11.869Z,63.47
2023-03-26T13:36:21.813Z,63.26
2023-03-26T13:39:20.413Z,62.73
2023-03-26T13:42:11.887Z,62.26
2023-03-26T13:45:08.730Z,62.20
2023-03-26T13:48:57.628Z,61.86
2023-03-26T13:52:07.890Z,62.79
2023-03-26T13:54:44.236Z,65.20
2023-03-26T13:57:24.967Z,63.75
2023-03-26T14:00:12.797Z,64.25
2023-03-26T14:02:41.337Z,64.08
2023-03-26T14:05:34.078Z,62.89
2023-03-26T14:10:57.462Z,65.57
2023-03-26T14:13:33.066Z,63.34
2023-03-26T14:16:14.331Z,62.49
2023-03-26T14:18:52.158Z,62.83
2023-03-26T14:22:01.128Z,65.42
2023-03-26T14:24:46.556Z,63.03
2023-03-26T14:27:40.659Z,64.03
2023-03-26T14:30:41.973Z,63.10
2023-03-26T14:33:49.792Z,63.21
2023-03-26T14:36:30.108Z,64.25
2023-03-26T14:39:27.077Z,63.56
2023-03-26T14:42:01.969Z,64.07
2023-03-26T14:44:56.580Z,64.85
2023-03-26T14:47:26.958Z,63.83
2023-03-26T15:09:58.497Z,62.67
2023-03-26T15:17:05.276Z,62.17
2023-03-26T15:20:38.002Z,61.86
2023-03-26T15:23:32.280Z,59.63
2023-03-26T15:30:42.661Z,61.92
2023-03-26T15:33:36.041Z,60.34
2023-03-26T15:36:32.612Z,59.31
2023-03-26T15:39:23.915Z,60.01
2023-03-26T15:42:30.510Z,62.65
2023-03-26T15:45:22.488Z,60.67
2023-03-26T15:48:11.749Z,61.42
2023-03-26T15:51:10.493Z,61.86
2023-03-26T15:53:54.965Z,62.85
2023-03-26T15:56:53.290Z,63.64
2023-03-26T15:59:42.601Z,63.46
2023-03-26T16:02:16.404Z,63.07
2023-03-26T16:05:03.355Z,61.65
2023-03-26T16:07:51.812Z,61.61
2023-03-26T16:10:28.413Z,61.70
2023-03-26T16:13:26.277Z,63.81
2023-03-26T16:16:00.784Z,63.82
2023-03-26T16:19:00.597Z,64.11
2023-03-26T16:21:33.084Z,64.53
2023-03-26T16:24:28.956Z,64.24
2023-03-26T16:27:14.008Z,65.00
2023-03-26T16:30:38.080Z,65.38
2023-03-26T16:33:17.770Z,64.10
2023-03-26T16:36:03.822Z,63.83
2023-03-26T16:38:57.212Z,64.81
2023-03-26T16:41:33.396Z,64.36
2023-03-26T16:44:18.266Z,63.90
2023-03-26T16:46:53.934Z,64.31
2023-03-26T16:50:08.932Z,65.16
2023-03-26T16:52:50.532Z,66.07
2023-03-26T16:55:34.634Z,66.02
2023-03-26T16:58:28.135Z,64.75
2023-03-26T17:01:21.474Z,65.05
2023-03-26T17:04:01.745Z,64.87
2023-03-26T17:06:48.924Z,66.64
2023-03-26T17:09:31.776Z,65.97
2023-03-26T17:12:29.659Z,68.66
2023-03-26T17:15:04.945Z,68.82
2023-03-26T17:17:59.034Z,70.53
2023-03-26T17:20:40.955Z,71.82
2023-03-26T17:23:22.754Z,72.27
2023-03-26T17:26:01.142Z,74.01
2023-03-26T17:29:03.020Z,76.39
2023-03-26T17:34:38.577Z,77.79
2023-03-26T17:37:29.445Z,77.78
2023-03-26T17:40:05.900Z,78.38
2023-03-26T17:42:37.545Z,78.96
2023-03-26T17:45:35.122Z,79.79
2023-03-26T17:48:09.227Z,79.63
2023-03-26T17:50:50.872Z,80.95
2023-03-26T17:53:35.479Z,82.21
2023-03-26T17:56:07.185Z,82.45
2023-03-26T17:58:48.180Z,82.45
2023-03-26T18:01:42.377Z,83.24
2023-03-26T18:08:20.219Z,83.76
2023-03-26T18:11:26.156Z,84.44
2023-03-26T18:17:29.997Z,84.79
2023-03-26T18:20:15.726Z,85.01
2023-03-26T18:27:20.518Z,83.47
2023-03-26T18:30:27.601Z,80.45
2023-03-26T18:34:04.654Z,79.47
2023-03-26T18:50:40.166Z,73.48
2023-03-26T18:53:49.874Z,75.05
2023-03-26T18:56:49.975Z,74.30
2023-03-26T18:59:42.075Z,75.09
2023-03-26T19:02:44.181Z,76.59
2023-03-26T19:05:49.615Z,78.37
2023-03-26T19:08:30.797Z,77.99
2023-03-26T19:11:31.510Z,76.82
2023-03-26T19:15:36.215Z,78.57
2023-03-26T19:22:52.761Z,79.54
2023-03-26T19:29:04.529Z,78.41
2023-03-26T19:46:11.017Z,79.97
2023-03-26T19:49:40.682Z,78.11
2023-03-26T19:53:18.035Z,74.92
2023-03-26T20:00:06.356Z,71.46
2023-03-26T20:09:30.877Z,71.02
2023-03-26T20:15:48.803Z,69.97
2023-03-26T20:22:03.332Z,70.20
2023-03-26T20:25:07.989Z,70.57
2023-03-26T20:27:38.288Z,70.34
2023-03-26T20:30:19.069Z,72.17
2023-03-26T20:33:12.402Z,70.58
2023-03-26T20:35:45.147Z,72.81
2023-03-26T20:38:39.465Z,71.33
2023-03-26T20:41:34.120Z,70.84
2023-03-26T20:44:28.256Z,71.38
2023-03-26T20:47:02.489Z,70.28
2023-03-26T20:49:37.693Z,69.85
2023-03-26T20:52:09.564Z,71.33
2023-03-26T20:54:38.854Z,71.71
2023-03-26T20:57:33.704Z,73.43
2023-03-26T21:00:00.486Z,72.92
2023-03-26T21:02:27.042Z,71.44
2023-03-26T21:04:55.732Z,73.76
2023-03-26T21:07:42.049Z,72.53
2023-03-26T21:10:15.832Z,73.43
2023-03-26T21:12:49.015Z,72.60
2023-03-26T21:15:22.992Z,71.66
2023-03-26T21:17:51.807Z,69.99
2023-03-26T21:20:19.753Z,73.55
2023-03-26T21:23:00.155Z,70.72
2023-03-26T21:25:48.392Z,72.08
2023-03-26T21:28:42.651Z,73.04
2023-03-26T21:31:40.907Z,74.39
2023-03-26T21:34:08.516Z,72.70
2023-03-26T21:36:35.457Z,73.38
2023-03-26T21:39:03.265Z,74.71
2023-03-26T21:41:45.940Z,74.09
2023-03-26T21:44:14.262Z,74.71
2023-03-26T21:46:48.617Z,74.48
2023-03-26T21:49:23.066Z,76.09
2023-03-26T21:52:07.757Z,76.65
2023-03-26T21:54:34.487Z,76.64
2023-03-26T21:57:21.274Z,75.40
2023-03-26T21:59:56.832Z,76.01
2023-03-26T22:02:42.796Z,75.63
2023-03-26T22:05:19.927Z,73.37
2023-03-26T22:07:54.387Z,76.25
2023-03-26T22:10:21.601Z,73.86
2023-03-26T22:12:48.483Z,74.33
2023-03-26T22:15:15.121Z,74.74
2023-03-26T22:17:54.134Z,73.63
2023-03-26T22:20:32.926Z,74.09
2023-03-26T22:23:03.343Z,74.52
2023-03-26T22:25:30.214Z,74.77
2023-03-26T22:27:57.527Z,75.12
2023-03-26T22:30:24.091Z,76.43
2023-03-26T22:32:51.880Z,74.77
2023-03-26T22:35:19.028Z,74.57
2023-03-26T22:37:46.892Z,71.85
2023-03-26T22:40:13.716Z,73.47
2023-03-26T22:42:41.406Z,73.97
2023-03-26T22:45:11.902Z,73.65
2023-03-26T22:47:39.205Z,72.87
2023-03-26T22:50:07.623Z,75.42
2023-03-26T22:52:35.949Z,74.25
2023-03-26T22:55:03.444Z,74.54
2023-03-26T22:57:32.767Z,75.95
2023-03-26T23:00:09.693Z,76.62
2023-03-26T23:02:36.618Z,75.85
2023-03-26T23:05:03.238Z,76.49
2023-03-26T23:07:31.508Z,73.77
2023-03-26T23:09:58.140Z,73.27
2023-03-26T23:12:24.679Z,74.99
2023-03-26T23:14:53.103Z,75.69
2023-03-26T23:17:29.039Z,74.83
2023-03-26T23:19:55.721Z,75.26
2023-03-26T23:22:23.761Z,75.24
2023-03-26T23:24:51.605Z,76.35
2023-03-26T23:27:18.091Z,75.42
2023-03-26T23:29:49.289Z,77.56
2023-03-26T23:32:23.987Z,77.83
2023-03-26T23:34:52.123Z,76.20
2023-03-26T23:37:29.458Z,77.28
2023-03-26T23:39:55.937Z,77.20
2023-03-26T23:42:29.315Z,79.01
2023-03-26T23:44:57.108Z,80.21
2023-03-26T23:47:23.917Z,78.27
2023-03-26T23:49:50.615Z,77.70
2023-03-26T23:52:17.072Z,78.37
2023-03-26T23:54:44.730Z,79.46
2023-03-26T23:57:11.341Z,78.84
2023-03-26T23:59:38.302Z,78.04
